עמוד ראשי
METAR-TAF:

METAR-TAF

שדות תעופה :

Tela, הונדורס

קו רוחב: 15-43N, קו אורך: 087-29W, גובה: 3מטר

תצפית מזג אוויר נוכחית

הדו"ח נערך לפני 56דקות, בשעה 05:00 UTC
רוח רגועה
טמפרטורת 30 צלסיוס
לחות 84%
לחץ 1008 hPa
ראות: 4000מטר
עשן,

METAR: MHTE 270500Z 00000KT 4000 FU NSC 30/27 Q1008 A2977

זמן: 23:56 (05:56 UTC)


TAF: חסר

תצפיות ותחזיות מזג אוויר לגבי יותר מ- 4,000 שדות תעופה ברחבי העולם. דוחות METAR ו- TAF.

התחנות הזמינות מסומנות בנקודות צהובות ואדומות על גבי המפה.

העבר את העכבר לנקודה הצבעונית על מנת לראות את שם התחנה.

לאחר מכן, לחץ כדי לראות את תוכן ואת תחזיות מזג האוויר.

כדי לשנות את המפה: לחץ על הכפתורים הירוקים עם הפלוס השחור כדי להתקרב; על הכפתור הירוק עם המקף כדי להתרחק; או בחיצים הירוקים למפות סמוכות.


METAR-TAF: